sensor_id;sensor_type;location;lat;lon;timestamp;pressure;altitude;pressure_sealevel;temperature;humidity
77235;BME280;66253;50.526;14.974;2024-02-15T00:00:14;99587.52;;;6.54;92.93
77235;BME280;66253;50.526;14.974;2024-02-15T00:02:42;99582.49;;;6.52;92.96
77235;BME280;66253;50.526;14.974;2024-02-15T00:05:11;99588.61;;;6.52;92.93
77235;BME280;66253;50.526;14.974;2024-02-15T00:07:39;99588.98;;;6.51;92.96
77235;BME280;66253;50.526;14.974;2024-02-15T00:10:09;99584.40;;;6.51;93.15
77235;BME280;66253;50.526;14.974;2024-02-15T00:12:37;99581.96;;;6.53;93.07
77235;BME280;66253;50.526;14.974;2024-02-15T00:15:06;99590.36;;;6.56;93.25
77235;BME280;66253;50.526;14.974;2024-02-15T00:17:35;99588.80;;;6.56;93.06
77235;BME280;66253;50.526;14.974;2024-02-15T00:20:03;99591.81;;;6.58;92.86
77235;BME280;66253;50.526;14.974;2024-02-15T00:22:32;99593.48;;;6.59;93.00
77235;BME280;66253;50.526;14.974;2024-02-15T00:25:00;99591.56;;;6.60;92.93
77235;BME280;66253;50.526;14.974;2024-02-15T00:27:30;99583.52;;;6.62;92.95
77235;BME280;66253;50.526;14.974;2024-02-15T00:29:58;99578.25;;;6.63;92.77
77235;BME280;66253;50.526;14.974;2024-02-15T00:32:27;99580.77;;;6.64;92.98
77235;BME280;66253;50.526;14.974;2024-02-15T00:34:55;99581.90;;;6.65;93.08
77235;BME280;66253;50.526;14.974;2024-02-15T00:37:23;99577.81;;;6.65;92.87
77235;BME280;66253;50.526;14.974;2024-02-15T00:39:52;99574.29;;;6.64;92.93
77235;BME280;66253;50.526;14.974;2024-02-15T00:42:20;99569.95;;;6.62;92.95
77235;BME280;66253;50.526;14.974;2024-02-15T00:44:48;99565.13;;;6.59;93.18
77235;BME280;66253;50.526;14.974;2024-02-15T00:47:16;99567.05;;;6.53;93.49
77235;BME280;66253;50.526;14.974;2024-02-15T00:49:44;99567.73;;;6.52;93.53
77235;BME280;66253;50.526;14.974;2024-02-15T00:52:13;99566.55;;;6.52;93.45
77235;BME280;66253;50.526;14.974;2024-02-15T00:54:41;99566.09;;;6.51;93.64
77235;BME280;66253;50.526;14.974;2024-02-15T00:57:09;99570.55;;;6.50;93.73
77235;BME280;66253;50.526;14.974;2024-02-15T00:59:37;99570.09;;;6.48;93.91
77235;BME280;66253;50.526;14.974;2024-02-15T01:02:05;99570.51;;;6.46;93.99
77235;BME280;66253;50.526;14.974;2024-02-15T01:04:34;99568.44;;;6.47;94.04
77235;BME280;66253;50.526;14.974;2024-02-15T01:07:02;99564.87;;;6.47;94.16
77235;BME280;66253;50.526;14.974;2024-02-15T01:09:30;99565.16;;;6.48;94.15
77235;BME280;66253;50.526;14.974;2024-02-15T01:11:58;99564.44;;;6.49;94.38
77235;BME280;66253;50.526;14.974;2024-02-15T01:14:26;99566.77;;;6.50;94.25
77235;BME280;66253;50.526;14.974;2024-02-15T01:16:55;99565.77;;;6.51;94.20
77235;BME280;66253;50.526;14.974;2024-02-15T01:19:23;99566.46;;;6.50;94.36
77235;BME280;66253;50.526;14.974;2024-02-15T01:21:51;99564.95;;;6.49;94.59
77235;BME280;66253;50.526;14.974;2024-02-15T01:24:19;99560.86;;;6.50;94.73
77235;BME280;66253;50.526;14.974;2024-02-15T01:26:48;99557.80;;;6.50;94.74
77235;BME280;66253;50.526;14.974;2024-02-15T01:29:16;99556.98;;;6.49;94.84
77235;BME280;66253;50.526;14.974;2024-02-15T01:31:45;99554.08;;;6.49;94.96
77235;BME280;66253;50.526;14.974;2024-02-15T01:34:13;99549.81;;;6.50;95.00
77235;BME280;66253;50.526;14.974;2024-02-15T01:36:41;99551.30;;;6.51;95.18
77235;BME280;66253;50.526;14.974;2024-02-15T01:39:09;99554.11;;;6.54;95.46
77235;BME280;66253;50.526;14.974;2024-02-15T01:41:38;99553.89;;;6.55;95.40
77235;BME280;66253;50.526;14.974;2024-02-15T01:44:06;99552.84;;;6.56;95.27
77235;BME280;66253;50.526;14.974;2024-02-15T01:46:34;99549.56;;;6.57;95.44
77235;BME280;66253;50.526;14.974;2024-02-15T01:49:02;99549.85;;;6.59;95.53
77235;BME280;66253;50.526;14.974;2024-02-15T01:51:31;99544.70;;;6.61;95.39
77235;BME280;66253;50.526;14.974;2024-02-15T01:54:00;99542.64;;;6.61;95.48
77235;BME280;66253;50.526;14.974;2024-02-15T01:56:29;99538.70;;;6.62;95.49
77235;BME280;66253;50.526;14.974;2024-02-15T01:58:57;99539.55;;;6.63;95.55
77235;BME280;66253;50.526;14.974;2024-02-15T02:01:26;99539.34;;;6.64;95.58
77235;BME280;66253;50.526;14.974;2024-02-15T02:03:55;99533.69;;;6.65;95.56
77235;BME280;66253;50.526;14.974;2024-02-15T02:06:24;99529.85;;;6.64;95.43
77235;BME280;66253;50.526;14.974;2024-02-15T02:08:54;99528.52;;;6.63;95.72
77235;BME280;66253;50.526;14.974;2024-02-15T02:11:22;99528.65;;;6.64;95.75
77235;BME280;66253;50.526;14.974;2024-02-15T02:13:51;99529.26;;;6.66;95.93
77235;BME280;66253;50.526;14.974;2024-02-15T02:16:35;99526.88;;;6.66;95.74
77235;BME280;66253;50.526;14.974;2024-02-15T02:19:03;99528.77;;;6.65;95.71
77235;BME280;66253;50.526;14.974;2024-02-15T02:21:31;99531.85;;;6.64;95.73
77235;BME280;66253;50.526;14.974;2024-02-15T02:24:02;99534.55;;;6.65;95.71
77235;BME280;66253;50.526;14.974;2024-02-15T02:26:32;99535.48;;;6.62;95.35
77235;BME280;66253;50.526;14.974;2024-02-15T02:29:00;99535.37;;;6.61;95.48
77235;BME280;66253;50.526;14.974;2024-02-15T02:31:28;99533.92;;;6.58;95.69
77235;BME280;66253;50.526;14.974;2024-02-15T02:33:56;99531.50;;;6.55;95.99
77235;BME280;66253;50.526;14.974;2024-02-15T02:36:24;99528.48;;;6.54;96.29
77235;BME280;66253;50.526;14.974;2024-02-15T02:38:53;99534.33;;;6.56;96.21
77235;BME280;66253;50.526;14.974;2024-02-15T02:41:21;99531.07;;;6.57;96.14
77235;BME280;66253;50.526;14.974;2024-02-15T02:43:49;99537.63;;;6.59;95.84
77235;BME280;66253;50.526;14.974;2024-02-15T02:46:17;99536.55;;;6.61;96.16
77235;BME280;66253;50.526;14.974;2024-02-15T02:48:45;99540.20;;;6.63;96.29
77235;BME280;66253;50.526;14.974;2024-02-15T02:51:14;99537.40;;;6.66;96.18
77235;BME280;66253;50.526;14.974;2024-02-15T02:53:43;99539.71;;;6.68;96.01
77235;BME280;66253;50.526;14.974;2024-02-15T02:56:11;99536.61;;;6.69;96.10
77235;BME280;66253;50.526;14.974;2024-02-15T02:58:39;99528.59;;;6.70;96.20
77235;BME280;66253;50.526;14.974;2024-02-15T03:01:07;99519.63;;;6.70;96.18
77235;BME280;66253;50.526;14.974;2024-02-15T03:03:36;99516.65;;;6.71;96.12
77235;BME280;66253;50.526;14.974;2024-02-15T03:06:04;99516.92;;;6.69;96.20
77235;BME280;66253;50.526;14.974;2024-02-15T03:08:33;99525.21;;;6.70;96.26
77235;BME280;66253;50.526;14.974;2024-02-15T03:11:01;99529.92;;;6.71;96.35
77235;BME280;66253;50.526;14.974;2024-02-15T03:13:30;99532.61;;;6.72;96.39
77235;BME280;66253;50.526;14.974;2024-02-15T03:15:58;99533.25;;;6.73;96.26
77235;BME280;66253;50.526;14.974;2024-02-15T03:18:26;99532.99;;;6.75;96.32
77235;BME280;66253;50.526;14.974;2024-02-15T03:20:54;99527.69;;;6.77;96.33
77235;BME280;66253;50.526;14.974;2024-02-15T03:23:22;99532.70;;;6.78;96.42
77235;BME280;66253;50.526;14.974;2024-02-15T03:25:51;99532.14;;;6.80;96.52
77235;BME280;66253;50.526;14.974;2024-02-15T03:28:19;99528.19;;;6.81;96.40
77235;BME280;66253;50.526;14.974;2024-02-15T03:30:49;99525.74;;;6.83;96.44
77235;BME280;66253;50.526;14.974;2024-02-15T03:33:18;99526.42;;;6.83;96.34
77235;BME280;66253;50.526;14.974;2024-02-15T03:35:46;99525.80;;;6.82;96.39
77235;BME280;66253;50.526;14.974;2024-02-15T03:38:14;99523.65;;;6.80;96.23
77235;BME280;66253;50.526;14.974;2024-02-15T03:40:43;99527.44;;;6.79;96.39
77235;BME280;66253;50.526;14.974;2024-02-15T03:43:11;99528.81;;;6.78;96.72
77235;BME280;66253;50.526;14.974;2024-02-15T03:45:39;99530.21;;;6.77;96.71
77235;BME280;66253;50.526;14.974;2024-02-15T03:48:08;99531.55;;;6.77;96.86
77235;BME280;66253;50.526;14.974;2024-02-15T03:50:36;99538.30;;;6.78;96.66
77235;BME280;66253;50.526;14.974;2024-02-15T03:53:04;99534.17;;;6.80;96.76
77235;BME280;66253;50.526;14.974;2024-02-15T03:55:33;99530.55;;;6.82;96.78
77235;BME280;66253;50.526;14.974;2024-02-15T03:58:01;99532.90;;;6.82;96.82
77235;BME280;66253;50.526;14.974;2024-02-15T04:00:29;99527.07;;;6.79;96.68
77235;BME280;66253;50.526;14.974;2024-02-15T04:02:58;99528.61;;;6.79;96.89
77235;BME280;66253;50.526;14.974;2024-02-15T04:05:26;99527.52;;;6.81;97.03
77235;BME280;66253;50.526;14.974;2024-02-15T04:07:54;99527.34;;;6.81;97.12
77235;BME280;66253;50.526;14.974;2024-02-15T04:10:22;99530.03;;;6.82;97.04
77235;BME280;66253;50.526;14.974;2024-02-15T04:12:51;99525.23;;;6.83;97.10
77235;BME280;66253;50.526;14.974;2024-02-15T04:15:19;99527.20;;;6.86;97.18
77235;BME280;66253;50.526;14.974;2024-02-15T04:17:47;99530.55;;;6.87;97.10
77235;BME280;66253;50.526;14.974;2024-02-15T04:20:16;99526.30;;;6.87;96.91
77235;BME280;66253;50.526;14.974;2024-02-15T04:22:44;99525.20;;;6.84;96.98
77235;BME280;66253;50.526;14.974;2024-02-15T04:25:12;99525.42;;;6.83;97.13
77235;BME280;66253;50.526;14.974;2024-02-15T04:27:40;99527.46;;;6.83;97.25
77235;BME280;66253;50.526;14.974;2024-02-15T04:30:10;99529.68;;;6.82;97.19
77235;BME280;66253;50.526;14.974;2024-02-15T04:32:38;99529.80;;;6.84;97.18
77235;BME280;66253;50.526;14.974;2024-02-15T04:35:07;99528.06;;;6.85;97.29
77235;BME280;66253;50.526;14.974;2024-02-15T04:37:35;99525.14;;;6.86;97.30
77235;BME280;66253;50.526;14.974;2024-02-15T04:40:04;99531.52;;;6.88;97.26
77235;BME280;66253;50.526;14.974;2024-02-15T04:42:33;99529.13;;;6.89;97.11
77235;BME280;66253;50.526;14.974;2024-02-15T04:45:02;99527.08;;;6.89;97.15
77235;BME280;66253;50.526;14.974;2024-02-15T04:47:32;99523.69;;;6.89;97.11
77235;BME280;66253;50.526;14.974;2024-02-15T04:50:00;99523.67;;;6.89;97.23
77235;BME280;66253;50.526;14.974;2024-02-15T04:52:28;99521.29;;;6.89;97.37
77235;BME280;66253;50.526;14.974;2024-02-15T04:54:56;99525.00;;;6.90;97.22
77235;BME280;66253;50.526;14.974;2024-02-15T04:57:25;99527.67;;;6.91;97.35
77235;BME280;66253;50.526;14.974;2024-02-15T04:59:54;99531.81;;;6.90;97.24
77235;BME280;66253;50.526;14.974;2024-02-15T05:02:22;99532.96;;;6.91;97.36
77235;BME280;66253;50.526;14.974;2024-02-15T05:04:50;99535.45;;;6.92;97.37
77235;BME280;66253;50.526;14.974;2024-02-15T05:07:18;99541.52;;;6.94;97.36
77235;BME280;66253;50.526;14.974;2024-02-15T05:09:46;99542.54;;;6.94;97.19
77235;BME280;66253;50.526;14.974;2024-02-15T05:12:23;99543.27;;;6.92;97.19
77235;BME280;66253;50.526;14.974;2024-02-15T05:14:51;99544.14;;;6.92;97.34
77235;BME280;66253;50.526;14.974;2024-02-15T05:17:19;99546.75;;;6.89;97.53
77235;BME280;66253;50.526;14.974;2024-02-15T05:19:48;99551.69;;;6.89;97.41
77235;BME280;66253;50.526;14.974;2024-02-15T05:22:16;99554.90;;;6.89;97.54
77235;BME280;66253;50.526;14.974;2024-02-15T05:24:45;99550.94;;;6.91;97.63
77235;BME280;66253;50.526;14.974;2024-02-15T05:27:13;99550.04;;;6.93;97.56
77235;BME280;66253;50.526;14.974;2024-02-15T05:29:41;99554.06;;;6.94;97.42
77235;BME280;66253;50.526;14.974;2024-02-15T05:32:09;99551.64;;;6.96;97.68
77235;BME280;66253;50.526;14.974;2024-02-15T05:34:37;99551.94;;;6.97;97.50
77235;BME280;66253;50.526;14.974;2024-02-15T05:37:06;99549.00;;;6.98;97.58
77235;BME280;66253;50.526;14.974;2024-02-15T05:39:34;99550.48;;;6.99;97.59
77235;BME280;66253;50.526;14.974;2024-02-15T05:42:02;99543.96;;;7.01;97.48
77235;BME280;66253;50.526;14.974;2024-02-15T05:44:31;99539.17;;;7.02;97.34
77235;BME280;66253;50.526;14.974;2024-02-15T05:46:59;99541.89;;;7.02;97.43
77235;BME280;66253;50.526;14.974;2024-02-15T05:49:27;99536.63;;;7.02;97.25
77235;BME280;66253;50.526;14.974;2024-02-15T05:51:56;99539.11;;;7.04;97.39
77235;BME280;66253;50.526;14.974;2024-02-15T05:54:24;99546.45;;;7.03;97.09
77235;BME280;66253;50.526;14.974;2024-02-15T05:56:52;99546.33;;;7.01;97.29
77235;BME280;66253;50.526;14.974;2024-02-15T05:59:21;99548.42;;;7.00;97.29
77235;BME280;66253;50.526;14.974;2024-02-15T06:01:49;99548.91;;;7.00;97.55
77235;BME280;66253;50.526;14.974;2024-02-15T06:04:17;99552.28;;;7.01;97.64
77235;BME280;66253;50.526;14.974;2024-02-15T06:06:46;99553.77;;;7.03;97.55
77235;BME280;66253;50.526;14.974;2024-02-15T06:09:14;99552.33;;;7.04;97.40
77235;BME280;66253;50.526;14.974;2024-02-15T06:11:43;99553.12;;;7.06;97.46
77235;BME280;66253;50.526;14.974;2024-02-15T06:14:11;99555.46;;;7.07;97.17
77235;BME280;66253;50.526;14.974;2024-02-15T06:16:44;99557.80;;;7.08;97.23
77235;BME280;66253;50.526;14.974;2024-02-15T06:19:13;99568.13;;;7.09;97.17
77235;BME280;66253;50.526;14.974;2024-02-15T06:21:41;99573.89;;;7.10;97.03
77235;BME280;66253;50.526;14.974;2024-02-15T06:24:09;99574.92;;;7.10;96.98
77235;BME280;66253;50.526;14.974;2024-02-15T06:26:38;99577.63;;;7.10;97.08
77235;BME280;66253;50.526;14.974;2024-02-15T06:29:06;99577.42;;;7.11;96.92
77235;BME280;66253;50.526;14.974;2024-02-15T06:31:34;99574.90;;;7.10;97.11
77235;BME280;66253;50.526;14.974;2024-02-15T06:34:02;99577.58;;;7.11;97.13
77235;BME280;66253;50.526;14.974;2024-02-15T06:36:32;99577.56;;;7.11;96.97
77235;BME280;66253;50.526;14.974;2024-02-15T06:39:01;99572.48;;;7.11;97.14
77235;BME280;66253;50.526;14.974;2024-02-15T06:41:30;99570.63;;;7.11;97.15
77235;BME280;66253;50.526;14.974;2024-02-15T06:43:58;99564.38;;;7.10;97.18
77235;BME280;66253;50.526;14.974;2024-02-15T06:46:27;99567.06;;;7.11;97.53
77235;BME280;66253;50.526;14.974;2024-02-15T06:48:55;99571.23;;;7.13;97.59
77235;BME280;66253;50.526;14.974;2024-02-15T06:51:24;99570.64;;;7.15;97.64
77235;BME280;66253;50.526;14.974;2024-02-15T06:53:52;99572.81;;;7.16;97.40
77235;BME280;66253;50.526;14.974;2024-02-15T06:56:20;99572.98;;;7.16;97.47
77235;BME280;66253;50.526;14.974;2024-02-15T06:58:49;99574.16;;;7.16;97.43
77235;BME280;66253;50.526;14.974;2024-02-15T07:01:17;99576.46;;;7.18;97.26
77235;BME280;66253;50.526;14.974;2024-02-15T07:03:45;99579.10;;;7.20;97.64
77235;BME280;66253;50.526;14.974;2024-02-15T07:06:14;99582.45;;;7.22;97.53
77235;BME280;66253;50.526;14.974;2024-02-15T07:08:42;99585.62;;;7.23;97.64
77235;BME280;66253;50.526;14.974;2024-02-15T07:11:10;99580.64;;;7.25;97.70
77235;BME280;66253;50.526;14.974;2024-02-15T07:13:39;99581.28;;;7.26;97.81
77235;BME280;66253;50.526;14.974;2024-02-15T07:16:09;99585.64;;;7.27;97.85
77235;BME280;66253;50.526;14.974;2024-02-15T07:18:37;99584.80;;;7.27;97.79
77235;BME280;66253;50.526;14.974;2024-02-15T07:21:06;99588.33;;;7.28;97.84
77235;BME280;66253;50.526;14.974;2024-02-15T07:23:34;99590.70;;;7.29;98.25
77235;BME280;66253;50.526;14.974;2024-02-15T07:26:03;99592.35;;;7.29;97.94
77235;BME280;66253;50.526;14.974;2024-02-15T07:28:31;99591.36;;;7.29;97.86
77235;BME280;66253;50.526;14.974;2024-02-15T07:30:59;99587.61;;;7.29;98.18
77235;BME280;66253;50.526;14.974;2024-02-15T07:33:27;99589.23;;;7.32;98.10
77235;BME280;66253;50.526;14.974;2024-02-15T07:35:56;99587.27;;;7.34;97.82
77235;BME280;66253;50.526;14.974;2024-02-15T07:38:24;99586.04;;;7.35;98.17
77235;BME280;66253;50.526;14.974;2024-02-15T07:40:52;99585.05;;;7.34;98.39
77235;BME280;66253;50.526;14.974;2024-02-15T07:43:20;99585.23;;;7.34;98.13
77235;BME280;66253;50.526;14.974;2024-02-15T07:45:49;99589.96;;;7.35;98.46
77235;BME280;66253;50.526;14.974;2024-02-15T07:48:17;99586.67;;;7.37;98.46
77235;BME280;66253;50.526;14.974;2024-02-15T07:50:50;99589.94;;;7.40;98.64
77235;BME280;66253;50.526;14.974;2024-02-15T07:53:21;99594.98;;;7.42;98.58
77235;BME280;66253;50.526;14.974;2024-02-15T07:55:50;99589.98;;;7.44;99.17
77235;BME280;66253;50.526;14.974;2024-02-15T07:58:18;99591.26;;;7.46;98.95
77235;BME280;66253;50.526;14.974;2024-02-15T08:00:47;99585.41;;;7.48;99.03
77235;BME280;66253;50.526;14.974;2024-02-15T08:03:15;99582.59;;;7.50;98.88
77235;BME280;66253;50.526;14.974;2024-02-15T08:05:43;99581.41;;;7.54;98.97
77235;BME280;66253;50.526;14.974;2024-02-15T08:08:12;99581.96;;;7.58;98.97
77235;BME280;66253;50.526;14.974;2024-02-15T08:10:40;99586.33;;;7.59;98.92
77235;BME280;66253;50.526;14.974;2024-02-15T08:13:08;99584.10;;;7.60;98.98
77235;BME280;66253;50.526;14.974;2024-02-15T08:15:36;99582.09;;;7.59;98.94
77235;BME280;66253;50.526;14.974;2024-02-15T08:18:05;99583.58;;;7.60;98.98
77235;BME280;66253;50.526;14.974;2024-02-15T08:20:33;99579.34;;;7.60;98.64
77235;BME280;66253;50.526;14.974;2024-02-15T08:23:02;99581.69;;;7.61;98.85
77235;BME280;66253;50.526;14.974;2024-02-15T08:25:30;99579.39;;;7.63;98.97
77235;BME280;66253;50.526;14.974;2024-02-15T08:27:59;99583.90;;;7.65;99.19
77235;BME280;66253;50.526;14.974;2024-02-15T08:30:27;99587.04;;;7.67;99.10
77235;BME280;66253;50.526;14.974;2024-02-15T08:32:55;99586.38;;;7.71;99.14
77235;BME280;66253;50.526;14.974;2024-02-15T08:35:24;99583.05;;;7.73;99.53
77235;BME280;66253;50.526;14.974;2024-02-15T08:37:52;99584.72;;;7.74;98.99
77235;BME280;66253;50.526;14.974;2024-02-15T08:40:21;99588.73;;;7.76;99.75
77235;BME280;66253;50.526;14.974;2024-02-15T08:42:49;99592.85;;;7.80;99.49
77235;BME280;66253;50.526;14.974;2024-02-15T08:45:17;99592.70;;;7.84;99.33
77235;BME280;66253;50.526;14.974;2024-02-15T08:47:46;99596.36;;;7.86;99.20
77235;BME280;66253;50.526;14.974;2024-02-15T08:50:14;99597.27;;;7.89;99.57
77235;BME280;66253;50.526;14.974;2024-02-15T08:52:43;99594.82;;;7.91;99.02
77235;BME280;66253;50.526;14.974;2024-02-15T08:55:12;99591.84;;;7.93;99.00
77235;BME280;66253;50.526;14.974;2024-02-15T08:57:40;99591.00;;;7.97;99.18
77235;BME280;66253;50.526;14.974;2024-02-15T09:00:12;99588.45;;;8.01;99.28
77235;BME280;66253;50.526;14.974;2024-02-15T09:02:43;99584.65;;;8.03;99.05
77235;BME280;66253;50.526;14.974;2024-02-15T09:05:13;99588.11;;;8.06;99.24
77235;BME280;66253;50.526;14.974;2024-02-15T09:07:42;99594.40;;;8.10;99.18
77235;BME280;66253;50.526;14.974;2024-02-15T09:10:11;99594.05;;;8.15;99.09
77235;BME280;66253;50.526;14.974;2024-02-15T09:12:40;99589.92;;;8.20;99.13
77235;BME280;66253;50.526;14.974;2024-02-15T09:15:09;99587.67;;;8.25;99.04
77235;BME280;66253;50.526;14.974;2024-02-15T09:17:38;99588.55;;;8.29;99.04
77235;BME280;66253;50.526;14.974;2024-02-15T09:20:08;99584.55;;;8.35;99.22
77235;BME280;66253;50.526;14.974;2024-02-15T09:22:36;99580.49;;;8.39;98.91
77235;BME280;66253;50.526;14.974;2024-02-15T09:25:05;99581.60;;;8.41;98.82
77235;BME280;66253;50.526;14.974;2024-02-15T09:27:34;99585.72;;;8.44;98.68
77235;BME280;66253;50.526;14.974;2024-02-15T09:30:02;99588.72;;;8.51;98.75
77235;BME280;66253;50.526;14.974;2024-02-15T09:32:33;99584.51;;;8.53;98.59
77235;BME280;66253;50.526;14.974;2024-02-15T09:35:01;99584.70;;;8.57;98.72
77235;BME280;66253;50.526;14.974;2024-02-15T09:37:31;99586.61;;;8.60;98.60
77235;BME280;66253;50.526;14.974;2024-02-15T09:40:00;99584.54;;;8.64;98.29
77235;BME280;66253;50.526;14.974;2024-02-15T09:42:28;99584.20;;;8.69;98.16
77235;BME280;66253;50.526;14.974;2024-02-15T09:44:56;99585.21;;;8.73;98.51
77235;BME280;66253;50.526;14.974;2024-02-15T09:47:25;99588.29;;;8.77;98.15
77235;BME280;66253;50.526;14.974;2024-02-15T09:49:57;99593.77;;;8.80;98.15
77235;BME280;66253;50.526;14.974;2024-02-15T09:52:26;99599.48;;;8.82;97.91
77235;BME280;66253;50.526;14.974;2024-02-15T09:54:56;99604.27;;;8.85;97.78
77235;BME280;66253;50.526;14.974;2024-02-15T09:57:25;99605.55;;;8.87;97.88
77235;BME280;66253;50.526;14.974;2024-02-15T09:59:54;99607.89;;;8.88;97.55
77235;BME280;66253;50.526;14.974;2024-02-15T10:02:22;99609.55;;;8.89;97.55
77235;BME280;66253;50.526;14.974;2024-02-15T10:04:51;99608.16;;;8.90;97.32
77235;BME280;66253;50.526;14.974;2024-02-15T10:07:20;99607.23;;;8.92;97.53
77235;BME280;66253;50.526;14.974;2024-02-15T10:09:48;99609.41;;;8.93;97.21
77235;BME280;66253;50.526;14.974;2024-02-15T10:12:16;99606.09;;;8.95;97.44
77235;BME280;66253;50.526;14.974;2024-02-15T10:14:49;99597.93;;;8.98;96.96
77235;BME280;66253;50.526;14.974;2024-02-15T10:17:19;99600.17;;;9.01;97.06
77235;BME280;66253;50.526;14.974;2024-02-15T10:19:46;99596.00;;;9.03;96.95
77235;BME280;66253;50.526;14.974;2024-02-15T10:22:32;99597.70;;;9.07;96.75
77235;BME280;66253;50.526;14.974;2024-02-15T10:25:13;99590.98;;;9.09;97.01
77235;BME280;66253;50.526;14.974;2024-02-15T10:27:43;99588.48;;;9.11;97.20
77235;BME280;66253;50.526;14.974;2024-02-15T10:30:18;99586.27;;;9.15;97.52
77235;BME280;66253;50.526;14.974;2024-02-15T10:32:47;99580.29;;;9.20;97.50
77235;BME280;66253;50.526;14.974;2024-02-15T10:35:22;99579.89;;;9.25;97.35
77235;BME280;66253;50.526;14.974;2024-02-15T10:37:51;99581.50;;;9.31;97.28
77235;BME280;66253;50.526;14.974;2024-02-15T10:40:22;99576.85;;;9.35;97.10
77235;BME280;66253;50.526;14.974;2024-02-15T10:42:52;99576.14;;;9.40;97.24
77235;BME280;66253;50.526;14.974;2024-02-15T10:45:21;99573.86;;;9.41;96.77
77235;BME280;66253;50.526;14.974;2024-02-15T10:47:50;99565.87;;;9.45;96.90
77235;BME280;66253;50.526;14.974;2024-02-15T10:50:18;99564.38;;;9.51;97.00
77235;BME280;66253;50.526;14.974;2024-02-15T10:52:51;99565.59;;;9.58;96.47
77235;BME280;66253;50.526;14.974;2024-02-15T10:55:33;99561.85;;;9.65;96.47
77235;BME280;66253;50.526;14.974;2024-02-15T10:58:05;99557.73;;;9.70;96.39
77235;BME280;66253;50.526;14.974;2024-02-15T11:00:33;99562.64;;;9.74;96.28
77235;BME280;66253;50.526;14.974;2024-02-15T11:03:04;99560.89;;;9.79;96.03
77235;BME280;66253;50.526;14.974;2024-02-15T11:05:35;99560.75;;;9.81;95.59
77235;BME280;66253;50.526;14.974;2024-02-15T11:08:06;99557.94;;;9.83;95.17
77235;BME280;66253;50.526;14.974;2024-02-15T11:10:35;99552.74;;;9.85;95.40
77235;BME280;66253;50.526;14.974;2024-02-15T11:13:05;99546.35;;;9.86;95.21
77235;BME280;66253;50.526;14.974;2024-02-15T11:15:43;99545.80;;;9.87;95.32
77235;BME280;66253;50.526;14.974;2024-02-15T11:18:12;99543.31;;;9.89;95.26
77235;BME280;66253;50.526;14.974;2024-02-15T11:20:50;99541.73;;;9.90;95.06
77235;BME280;66253;50.526;14.974;2024-02-15T11:23:28;99543.02;;;9.95;95.33
77235;BME280;66253;50.526;14.974;2024-02-15T11:25:56;99538.32;;;10.01;95.13
77235;BME280;66253;50.526;14.974;2024-02-15T11:28:40;99532.64;;;10.05;95.16
77235;BME280;66253;50.526;14.974;2024-02-15T11:34:43;99530.11;;;10.08;94.35
77235;BME280;66253;50.526;14.974;2024-02-15T11:40:18;99531.20;;;10.18;94.08
77235;BME280;66253;50.526;14.974;2024-02-15T11:42:47;99533.98;;;10.20;94.10
77235;BME280;66253;50.526;14.974;2024-02-15T11:45:16;99532.23;;;10.21;93.66
77235;BME280;66253;50.526;14.974;2024-02-15T11:47:48;99531.62;;;10.19;93.51
77235;BME280;66253;50.526;14.974;2024-02-15T11:50:17;99536.93;;;10.19;93.59
77235;BME280;66253;50.526;14.974;2024-02-15T11:52:47;99535.95;;;10.18;93.46
77235;BME280;66253;50.526;14.974;2024-02-15T11:55:17;99538.48;;;10.19;93.53
77235;BME280;66253;50.526;14.974;2024-02-15T11:57:55;99537.98;;;10.18;93.63
77235;BME280;66253;50.526;14.974;2024-02-15T12:00:25;99533.10;;;10.17;93.61
77235;BME280;66253;50.526;14.974;2024-02-15T12:02:53;99531.77;;;10.17;93.66
77235;BME280;66253;50.526;14.974;2024-02-15T12:05:22;99529.02;;;10.16;93.64
77235;BME280;66253;50.526;14.974;2024-02-15T12:07:50;99527.70;;;10.19;93.50
77235;BME280;66253;50.526;14.974;2024-02-15T12:10:19;99525.40;;;10.21;93.85
77235;BME280;66253;50.526;14.974;2024-02-15T12:12:53;99523.96;;;10.22;93.32
77235;BME280;66253;50.526;14.974;2024-02-15T12:15:22;99523.35;;;10.24;93.69
77235;BME280;66253;50.526;14.974;2024-02-15T12:17:50;99519.36;;;10.26;93.55
77235;BME280;66253;50.526;14.974;2024-02-15T12:20:19;99520.56;;;10.26;93.81
77235;BME280;66253;50.526;14.974;2024-02-15T12:22:48;99518.48;;;10.26;93.83
77235;BME280;66253;50.526;14.974;2024-02-15T12:25:17;99524.63;;;10.27;93.65
77235;BME280;66253;50.526;14.974;2024-02-15T12:27:46;99528.46;;;10.28;93.70
77235;BME280;66253;50.526;14.974;2024-02-15T12:30:16;99527.91;;;10.29;94.04
77235;BME280;66253;50.526;14.974;2024-02-15T12:32:45;99531.00;;;10.29;93.79
77235;BME280;66253;50.526;14.974;2024-02-15T12:35:14;99532.22;;;10.25;93.56
77235;BME280;66253;50.526;14.974;2024-02-15T12:37:43;99528.20;;;10.23;93.70
77235;BME280;66253;50.526;14.974;2024-02-15T12:40:16;99527.31;;;10.24;94.05
77235;BME280;66253;50.526;14.974;2024-02-15T12:42:45;99522.86;;;10.20;94.17
77235;BME280;66253;50.526;14.974;2024-02-15T12:45:20;99521.77;;;10.22;94.16
77235;BME280;66253;50.526;14.974;2024-02-15T12:47:51;99520.39;;;10.22;94.31
77235;BME280;66253;50.526;14.974;2024-02-15T12:50:20;99519.42;;;10.21;94.40
77235;BME280;66253;50.526;14.974;2024-02-15T12:52:49;99519.36;;;10.19;94.58
77235;BME280;66253;50.526;14.974;2024-02-15T12:55:19;99521.02;;;10.16;94.66
77235;BME280;66253;50.526;14.974;2024-02-15T12:57:47;99523.17;;;10.14;95.00
77235;BME280;66253;50.526;14.974;2024-02-15T13:00:17;99524.34;;;10.15;94.91
77235;BME280;66253;50.526;14.974;2024-02-15T13:02:46;99520.24;;;10.11;94.83
77235;BME280;66253;50.526;14.974;2024-02-15T13:05:14;99519.29;;;10.09;95.10
77235;BME280;66253;50.526;14.974;2024-02-15T13:07:43;99518.13;;;10.12;95.31
77235;BME280;66253;50.526;14.974;2024-02-15T13:10:11;99515.83;;;10.15;95.25
77235;BME280;66253;50.526;14.974;2024-02-15T13:12:41;99514.70;;;10.17;95.43
77235;BME280;66253;50.526;14.974;2024-02-15T13:15:10;99514.20;;;10.19;95.70